Time;durP1;ratioP1;P1;durP2;ratioP2;P2;SDS_P1;SDS_P2;PMS_P1;PMS_P2;Temp;Humidity;BMP_temperature;BMP_pressure;BME280_temperature;BME280_humidity;BME280_pressure;Samples;Min_cycle;Max_cycle;Signal;HPM_P1;HPM_P2
2022/09/21 00:01:52;;;;;;;;;;;10.20;97.70;;;;;;4960070;28;19933;-77
2022/09/21 00:04:19;;;;;;;;;;;10.10;97.60;;;;;;4963093;28;20076;-76
2022/09/21 00:06:46;;;;;;;;;;;10.10;97.60;;;;;;4966784;28;19965;-77
2022/09/21 00:09:13;;;;;;;;;;;10.10;97.90;;;;;;4966006;28;20151;-77
2022/09/21 00:11:41;;;;;;;;;;;10.00;97.60;;;;;;4963118;28;20017;-76
2022/09/21 00:14:11;;;;;;;;;;;10.00;97.60;;;;;;4964706;28;19956;-77
2022/09/21 00:16:38;;;;;;;;;;;10.00;97.60;;;;;;4961051;28;19931;-76
2022/09/21 00:19:06;;;;;;;;;;;10.00;97.70;;;;;;4965270;28;19966;-77
2022/09/21 00:21:33;;;;;;;;;;;10.00;97.60;;;;;;4961374;28;19933;-77
2022/09/21 00:24:01;;;;;;;;;;;9.90;98.10;;;;;;4964789;28;19992;-77
2022/09/21 00:26:28;;;;;;;;;;;9.90;98.10;;;;;;4956152;28;20309;-77
2022/09/21 00:28:58;;;;;;;;;;;9.90;98.10;;;;;;4962524;28;20267;-77
2022/09/21 00:31:25;;;;;;;;;;;9.80;98.10;;;;;;4958003;28;20024;-76
2022/09/21 00:33:52;;;;;;;;;;;9.80;98.10;;;;;;4965297;28;19926;-76
2022/09/21 00:36:19;;;;;;;;;;;;;;;;;;4966180;28;19933;-77
2022/09/21 00:38:49;;;;;;;;;;;9.80;97.90;;;;;;4962652;28;20017;-76
2022/09/21 00:41:15;;;;;;;;;;;9.80;98.20;;;;;;4963481;28;19950;-77
2022/09/21 00:43:44;;;;;;;;;;;9.70;98.10;;;;;;4962154;28;19927;-77
2022/09/21 00:46:15;;;;;;;;;;;9.70;98.10;;;;;;4960772;28;20389;-77
2022/09/21 00:48:42;;;;;;;;;;;9.70;98.10;;;;;;4964419;28;20013;-77
2022/09/21 00:51:09;;;;;;;;;;;9.70;98.20;;;;;;4961433;28;19976;-77
2022/09/21 00:53:38;;;;;;;;;;;9.70;98.20;;;;;;4960494;28;20016;-77
2022/09/21 00:56:05;;;;;;;;;;;9.70;98.20;;;;;;4965203;28;20001;-76
2022/09/21 00:58:33;;;;;;;;;;;9.60;98.20;;;;;;4969220;28;19996;-76
2022/09/21 01:01:00;;;;;;;;;;;9.60;98.20;;;;;;4966242;28;20098;-76
2022/09/21 01:03:30;;;;;;;;;;;9.60;98.20;;;;;;4955145;28;19976;-76
2022/09/21 01:05:57;;;;;;;;;;;9.60;98.20;;;;;;4966021;28;19926;-76
2022/09/21 01:08:26;;;;;;;;;;;9.60;98.20;;;;;;4965523;28;20024;-77
2022/09/21 01:11:02;;;;;;;;;;;9.60;98.20;;;;;;4962554;28;20138;-77
2022/09/21 01:13:33;;;;;;;;;;;9.60;98.30;;;;;;4963314;28;20488;-77
2022/09/21 01:16:03;;;;;;;;;;;9.60;98.20;;;;;;4955856;28;20347;-76
2022/09/21 01:18:34;;;;;;;;;;;9.60;98.30;;;;;;4965977;28;19926;-76
2022/09/21 01:21:21;;;;;;;;;;;9.50;98.10;;;;;;4961846;28;20622;-76
2022/09/21 01:24:11;;;;;;;;;;;9.50;98.10;;;;;;4963643;28;19934;-77
2022/09/21 01:26:48;;;;;;;;;;;9.50;98.10;;;;;;4945058;28;20349;-76
2022/09/21 01:29:19;;;;;;;;;;;9.50;98.20;;;;;;4959650;28;20029;-76
2022/09/21 01:31:49;;;;;;;;;;;9.40;98.10;;;;;;4959661;28;20025;-76
2022/09/21 01:34:19;;;;;;;;;;;9.40;98.10;;;;;;4961590;28;19961;-75
2022/09/21 01:36:48;;;;;;;;;;;9.40;98.10;;;;;;4961526;28;19933;-76
2022/09/21 01:39:16;;;;;;;;;;;9.40;98.10;;;;;;4956065;28;20369;-77
2022/09/21 01:41:44;;;;;;;;;;;9.40;98.10;;;;;;4961150;28;19929;-76
2022/09/21 01:44:13;;;;;;;;;;;9.40;98.10;;;;;;4961215;28;19926;-77
2022/09/21 01:46:42;;;;;;;;;;;9.40;98.10;;;;;;4958125;28;20834;-77
2022/09/21 01:49:11;;;;;;;;;;;9.40;98.10;;;;;;4960765;28;19934;-76
2022/09/21 01:51:42;;;;;;;;;;;9.40;98.10;;;;;;4960317;28;19930;-75
2022/09/21 01:54:11;;;;;;;;;;;9.40;98.10;;;;;;4966305;28;20415;-76
2022/09/21 01:56:41;;;;;;;;;;;9.40;98.10;;;;;;4954008;28;20009;-76
2022/09/21 01:59:10;;;;;;;;;;;9.30;98.10;;;;;;4955603;28;19930;-75
2022/09/21 02:01:42;;;;;;;;;;;9.30;98.10;;;;;;4961047;28;19965;-75
2022/09/21 02:04:11;;;;;;;;;;;9.30;98.10;;;;;;4960191;28;20385;-77
2022/09/21 02:06:39;;;;;;;;;;;9.30;98.00;;;;;;4958297;28;20179;-77
2022/09/21 02:09:07;;;;;;;;;;;9.30;98.10;;;;;;4958291;28;20475;-76
2022/09/21 02:11:34;;;;;;;;;;;9.30;98.00;;;;;;4962154;28;19932;-76
2022/09/21 02:14:01;;;;;;;;;;;9.20;98.00;;;;;;4960533;28;19930;-77
2022/09/21 02:16:33;;;;;;;;;;;9.20;98.10;;;;;;4962376;28;20165;-77
2022/09/21 02:19:09;;;;;;;;;;;9.20;98.10;;;;;;4955616;28;19961;-76
2022/09/21 02:21:42;;;;;;;;;;;9.20;98.10;;;;;;4960327;28;20415;-77
2022/09/21 02:24:13;;;;;;;;;;;9.20;98.10;;;;;;4941354;28;20015;-76
2022/09/21 02:26:46;;;;;;;;;;;9.20;98.10;;;;;;4956953;28;20020;-77
2022/09/21 02:31:42;;;;;;;;;;;9.20;98.10;;;;;;4923026;23;20412;-76
2022/09/21 02:34:12;;;;;;;;;;;9.20;98.10;;;;;;4971203;28;20285;-75
2022/09/21 02:36:44;;;;;;;;;;;9.20;98.10;;;;;;4977876;28;20127;-76
2022/09/21 02:39:15;;;;;;;;;;;9.10;98.10;;;;;;4976070;28;20024;-76
2022/09/21 02:41:50;;;;;;;;;;;9.10;98.10;;;;;;4990649;28;20447;-76
2022/09/21 02:44:18;;;;;;;;;;;9.00;98.10;;;;;;4968711;28;19948;-76
2022/09/21 02:46:48;;;;;;;;;;;9.00;98.10;;;;;;4990242;28;19969;-76
2022/09/21 02:49:18;;;;;;;;;;;9.00;98.10;;;;;;4992131;28;20308;-77
2022/09/21 02:51:47;;;;;;;;;;;8.90;98.10;;;;;;4993053;28;20359;-76
2022/09/21 02:54:16;;;;;;;;;;;8.90;98.00;;;;;;4992679;28;19925;-76
2022/09/21 02:56:45;;;;;;;;;;;8.90;98.00;;;;;;4985772;28;19930;-75
2022/09/21 02:59:12;;;;;;;;;;;8.90;98.10;;;;;;4994419;28;20408;-76
2022/09/21 03:01:39;;;;;;;;;;;8.90;98.10;;;;;;4992100;28;20387;-76
2022/09/21 03:04:06;;;;;;;;;;;8.90;98.10;;;;;;5000267;28;20040;-75
2022/09/21 03:06:33;;;;;;;;;;;8.90;98.10;;;;;;4994226;28;19968;-76
2022/09/21 03:09:01;;;;;;;;;;;8.90;98.10;;;;;;5002782;28;19933;-76
2022/09/21 03:11:28;;;;;;;;;;;9.00;98.20;;;;;;5001648;28;19940;-75
2022/09/21 03:13:55;;;;;;;;;;;8.90;98.20;;;;;;4990806;28;19943;-76
2022/09/21 03:16:23;;;;;;;;;;;8.90;98.10;;;;;;4974957;28;20017;-76
2022/09/21 03:18:50;;;;;;;;;;;8.90;98.20;;;;;;4996563;28;20408;-75
2022/09/21 03:21:17;;;;;;;;;;;8.90;98.20;;;;;;4977116;28;19933;-76
2022/09/21 03:23:44;;;;;;;;;;;8.90;98.10;;;;;;4994091;28;19936;-76
2022/09/21 04:55:23;;;;;;;;;;;8.50;98.40;;;;;;5755380;23;19945;-80
2022/09/21 06:40:14;;;;;;;;;;;7.90;98.70;;;;;;6147135;23;19954;31
2022/09/21 11:50:09;;;;;;;;;;;10.30;99.90;;;;;;5623473;23;19941;-82
2022/09/21 15:45:04;;;;;;;;;;;12.50;96.50;;;;;;5318362;23;19917;-86
2022/09/21 15:57:42;;;;;;;;;;;12.60;97.20;;;;;;5000689;28;19994;-84
2022/09/21 16:09:50;;;;;;;;;;;12.60;97.50;;;;;;5109539;27;19921;-87
2022/09/21 16:12:44;;;;;;;;;;;12.70;97.70;;;;;;5087348;28;20360;-87
2022/09/21 16:15:17;;;;;;;;;;;12.70;97.70;;;;;;5072320;28;19925;-87
2022/09/21 16:17:53;;;;;;;;;;;12.70;97.80;;;;;;5091589;28;19921;-87
2022/09/21 16:20:22;;;;;;;;;;;12.70;97.80;;;;;;5088914;28;20314;-87
2022/09/21 16:22:51;;;;;;;;;;;12.70;97.90;;;;;;5124058;27;20417;-87
2022/09/21 16:25:25;;;;;;;;;;;12.70;97.80;;;;;;5092551;28;19932;-88
2022/09/21 16:27:54;;;;;;;;;;;12.70;97.80;;;;;;5087979;28;19925;-87
2022/09/21 16:30:40;;;;;;;;;;;12.70;97.70;;;;;;5086258;28;19928;-85
2022/09/21 16:33:26;;;;;;;;;;;12.70;97.70;;;;;;5083827;28;20035;-86
2022/09/21 16:35:57;;;;;;;;;;;12.70;97.80;;;;;;5082171;28;19967;-86
2022/09/21 16:38:25;;;;;;;;;;;12.80;97.80;;;;;;5091503;28;19943;-87
2022/09/21 16:40:53;;;;;;;;;;;12.80;97.70;;;;;;5086675;28;19936;-86
2022/09/21 16:43:22;;;;;;;;;;;12.80;97.50;;;;;;5089127;28;19924;-89
2022/09/21 16:45:48;;;;;;;;;;;12.80;97.50;;;;;;5091245;28;19933;-86
2022/09/21 16:48:15;;;;;;;;;;;12.80;97.70;;;;;;5099599;28;20003;-83
2022/09/21 16:50:42;;;;;;;;;;;12.80;97.30;;;;;;5083687;28;19982;-84
2022/09/21 16:53:09;;;;;;;;;;;12.80;97.20;;;;;;5084797;28;19924;-84
2022/09/21 16:55:36;;;;;;;;;;;12.80;97.30;;;;;;5081003;28;19924;-84
2022/09/21 16:58:04;;;;;;;;;;;12.80;97.10;;;;;;5086970;28;19933;-83
2022/09/21 17:00:36;;;;;;;;;;;12.80;97.00;;;;;;5085166;28;19986;-89
2022/09/21 17:03:03;;;;;;;;;;;12.80;97.20;;;;;;5089610;28;19985;-89
2022/09/21 17:05:29;;;;;;;;;;;12.80;96.80;;;;;;5083358;28;19928;-88
2022/09/21 17:07:57;;;;;;;;;;;12.90;96.80;;;;;;5091503;28;19925;-87
2022/09/21 17:10:27;;;;;;;;;;;12.80;96.60;;;;;;5106876;28;19935;-89
2022/09/21 17:12:54;;;;;;;;;;;12.80;96.70;;;;;;5112499;28;19946;-89
2022/09/21 17:15:23;;;;;;;;;;;12.80;96.50;;;;;;5103018;28;19924;-86
2022/09/21 17:17:50;;;;;;;;;;;12.80;96.50;;;;;;5109489;28;19935;-89
2022/09/21 17:20:18;;;;;;;;;;;12.80;96.40;;;;;;5085893;28;19924;-88
2022/09/21 17:22:45;;;;;;;;;;;12.80;96.30;;;;;;5101820;28;19923;-87
2022/09/21 17:25:12;;;;;;;;;;;12.80;96.10;;;;;;5101516;28;19998;-89
2022/09/21 17:27:40;;;;;;;;;;;12.80;96.00;;;;;;5098267;28;19939;-87
2022/09/21 17:30:11;;;;;;;;;;;12.80;96.10;;;;;;5083855;28;19949;-88
2022/09/21 17:32:41;;;;;;;;;;;12.70;96.00;;;;;;5086350;28;19932;-87
2022/09/21 17:35:15;;;;;;;;;;;12.70;95.90;;;;;;5084164;28;19928;-88
2022/09/21 17:37:42;;;;;;;;;;;12.70;95.90;;;;;;5091397;28;19928;-88
2022/09/21 17:40:10;;;;;;;;;;;12.70;95.80;;;;;;5075919;28;19946;-88
2022/09/21 17:42:38;;;;;;;;;;;12.70;95.80;;;;;;5072544;28;19960;-88
2022/09/21 17:45:13;;;;;;;;;;;12.70;95.70;;;;;;5077301;28;19931;-89
2022/09/21 17:47:42;;;;;;;;;;;12.70;95.60;;;;;;5074812;28;19962;-86
2022/09/21 17:50:16;;;;;;;;;;;12.70;95.50;;;;;;5098269;28;20452;-88
2022/09/21 17:55:28;;;;;;;;;;;12.60;95.40;;;;;;5094512;28;20385;-87
2022/09/21 17:58:04;;;;;;;;;;;12.60;95.40;;;;;;5090802;28;20394;-88
2022/09/21 18:00:37;;;;;;;;;;;12.60;95.20;;;;;;5090742;28;19950;-87
2022/09/21 18:03:12;;;;;;;;;;;12.60;95.20;;;;;;5075867;28;19930;-90
2022/09/21 18:05:39;;;;;;;;;;;12.60;95.10;;;;;;5072171;28;19924;-88
2022/09/21 18:08:07;;;;;;;;;;;12.60;95.10;;;;;;5071199;28;19928;-87
2022/09/21 18:10:34;;;;;;;;;;;12.50;95.10;;;;;;5096091;28;19947;-88
2022/09/21 18:13:21;;;;;;;;;;;12.50;95.00;;;;;;5096867;28;20362;-88
2022/09/21 18:15:54;;;;;;;;;;;12.50;95.00;;;;;;5091717;28;19936;-87
2022/09/21 18:18:30;;;;;;;;;;;12.50;94.90;;;;;;5088970;28;20660;-87
2022/09/21 18:21:01;;;;;;;;;;;12.50;94.80;;;;;;5074717;28;19924;-86
2022/09/21 18:23:32;;;;;;;;;;;12.40;95.10;;;;;;5071452;28;20289;-88
2022/09/21 18:25:59;;;;;;;;;;;12.40;94.90;;;;;;5107500;28;19924;-88
2022/09/21 18:28:37;;;;;;;;;;;12.40;94.90;;;;;;5092111;28;19956;-88
2022/09/21 18:31:07;;;;;;;;;;;12.40;94.90;;;;;;5075995;28;19924;-87
2022/09/21 18:33:42;;;;;;;;;;;12.40;94.80;;;;;;5089420;28;19924;-88
2022/09/21 18:36:16;;;;;;;;;;;12.40;94.70;;;;;;5089223;28;19928;-89
2022/09/21 18:38:49;;;;;;;;;;;12.30;94.60;;;;;;5069844;28;20655;-86
2022/09/21 18:41:21;;;;;;;;;;;12.30;94.60;;;;;;5104518;27;20344;-88
2022/09/21 18:43:57;;;;;;;;;;;12.30;94.60;;;;;;5087568;28;20377;-88
2022/09/21 18:46:28;;;;;;;;;;;12.30;94.70;;;;;;5087532;28;19936;-87
2022/09/21 18:49:01;;;;;;;;;;;12.20;94.60;;;;;;5092945;28;20447;-88
2022/09/21 18:51:30;;;;;;;;;;;12.20;94.60;;;;;;5091467;28;19931;-89
2022/09/21 18:53:59;;;;;;;;;;;12.20;94.60;;;;;;5107266;27;19924;-86
2022/09/21 18:56:28;;;;;;;;;;;12.20;94.60;;;;;;5086196;28;19928;-87
2022/09/21 18:58:57;;;;;;;;;;;12.20;94.60;;;;;;5091625;28;19940;-88
2022/09/21 19:01:25;;;;;;;;;;;12.20;94.60;;;;;;5084009;28;20064;-86
2022/09/21 19:03:52;;;;;;;;;;;12.10;94.60;;;;;;5087236;28;19924;-87
2022/09/21 19:06:31;;;;;;;;;;;12.10;94.50;;;;;;5086185;28;19939;-88
2022/09/21 19:09:01;;;;;;;;;;;12.10;94.80;;;;;;5089082;28;20424;-89
2022/09/21 19:11:33;;;;;;;;;;;12.20;94.60;;;;;;5087139;28;19932;-88
2022/09/21 19:14:04;;;;;;;;;;;12.10;94.60;;;;;;5081777;28;19931;-89
2022/09/21 19:16:32;;;;;;;;;;;12.10;94.70;;;;;;5071524;28;20548;-89
2022/09/21 19:19:04;;;;;;;;;;;12.10;94.70;;;;;;5071600;28;19965;-88
2022/09/21 19:21:44;;;;;;;;;;;12.00;94.60;;;;;;5089212;28;19989;-87
2022/09/21 19:24:18;;;;;;;;;;;12.10;94.70;;;;;;5081985;28;20276;-87
2022/09/21 19:26:49;;;;;;;;;;;12.00;94.60;;;;;;5083000;28;19959;-89
2022/09/21 19:29:24;;;;;;;;;;;12.00;94.70;;;;;;5099097;27;19924;-89
2022/09/21 19:31:51;;;;;;;;;;;12.00;94.80;;;;;;5086951;28;20394;-89
2022/09/21 19:34:19;;;;;;;;;;;11.90;94.70;;;;;;5069154;28;19924;-89
2022/09/21 19:36:47;;;;;;;;;;;11.90;94.80;;;;;;5080663;28;20451;-89
2022/09/21 19:39:15;;;;;;;;;;;11.90;94.80;;;;;;5071401;28;19924;-89
2022/09/21 19:41:53;;;;;;;;;;;11.90;94.80;;;;;;5084353;28;19947;-88
2022/09/21 19:44:30;;;;;;;;;;;11.90;94.80;;;;;;5066603;28;19928;-89
2022/09/21 19:47:00;;;;;;;;;;;11.90;94.80;;;;;;5066215;28;20471;-88
2022/09/21 19:49:32;;;;;;;;;;;11.90;94.90;;;;;;5085735;28;19932;-88
2022/09/21 19:52:03;;;;;;;;;;;11.80;94.90;;;;;;5069117;28;20646;-86
2022/09/21 20:00:00;;;;;;;;;;;11.80;94.90;;;;;;5070800;28;20413;-88
2022/09/21 20:02:31;;;;;;;;;;;11.80;94.90;;;;;;5072699;28;19929;-88
2022/09/21 20:05:01;;;;;;;;;;;11.80;94.90;;;;;;5080173;28;19925;-87
2022/09/21 20:07:36;;;;;;;;;;;11.70;94.90;;;;;;5065361;28;19924;-87
2022/09/21 20:10:08;;;;;;;;;;;11.70;94.90;;;;;;5068597;28;22207;-88
2022/09/21 20:12:41;;;;;;;;;;;11.70;95.00;;;;;;5087550;28;19939;-88
2022/09/21 20:15:11;;;;;;;;;;;11.70;95.00;;;;;;5087737;28;20010;-86
2022/09/21 20:17:43;;;;;;;;;;;11.70;95.00;;;;;;5101684;28;19924;-88
2022/09/21 20:20:15;;;;;;;;;;;11.70;95.00;;;;;;5080699;27;20379;-88
2022/09/21 20:22:43;;;;;;;;;;;11.70;95.00;;;;;;5095790;28;19924;-88
2022/09/21 20:25:14;;;;;;;;;;;11.60;95.00;;;;;;5084336;28;19923;-87
2022/09/21 20:27:44;;;;;;;;;;;11.60;95.10;;;;;;5077583;28;19912;-87
2022/09/21 20:30:11;;;;;;;;;;;11.60;95.10;;;;;;5066894;28;19924;-84
2022/09/21 20:32:39;;;;;;;;;;;11.60;95.10;;;;;;5091575;28;19924;-88
2022/09/21 20:35:10;;;;;;;;;;;11.60;95.10;;;;;;5054887;28;19939;-87
2022/09/21 20:37:37;;;;;;;;;;;11.60;95.10;;;;;;5076177;28;21360;-87
2022/09/21 20:40:06;;;;;;;;;;;11.60;95.10;;;;;;5084099;28;19972;-87
2022/09/21 20:42:37;;;;;;;;;;;11.50;95.10;;;;;;5067924;28;19924;-87
2022/09/21 20:45:04;;;;;;;;;;;11.50;95.20;;;;;;5079096;28;19932;-88
2022/09/21 20:47:31;;;;;;;;;;;11.50;95.20;;;;;;5060738;28;19924;-87
2022/09/21 20:49:58;;;;;;;;;;;11.50;95.30;;;;;;5070646;28;19942;-86
2022/09/21 20:52:24;;;;;;;;;;;11.50;95.20;;;;;;5082472;28;19924;-87
2022/09/21 20:54:51;;;;;;;;;;;11.50;95.30;;;;;;5095085;28;20656;-87
2022/09/21 20:57:20;;;;;;;;;;;11.40;95.30;;;;;;5094450;28;20027;-86
2022/09/21 20:59:47;;;;;;;;;;;11.50;95.30;;;;;;5070062;28;20448;-87
2022/09/21 21:02:15;;;;;;;;;;;11.40;95.30;;;;;;5073053;28;19928;-88
2022/09/21 21:04:42;;;;;;;;;;;11.40;95.40;;;;;;5070171;28;19931;-87
2022/09/21 21:07:09;;;;;;;;;;;11.40;95.40;;;;;;5072752;28;19959;-87
2022/09/21 21:09:35;;;;;;;;;;;11.40;95.40;;;;;;5091807;28;19928;-88
2022/09/21 21:12:02;;;;;;;;;;;11.40;95.50;;;;;;5086981;28;19924;-88
2022/09/21 21:14:30;;;;;;;;;;;11.40;95.50;;;;;;5095284;28;19928;-87
2022/09/21 21:16:57;;;;;;;;;;;11.40;95.40;;;;;;5090581;28;19938;-87
2022/09/21 21:19:24;;;;;;;;;;;11.30;95.40;;;;;;5088976;28;19978;-88
2022/09/21 21:21:51;;;;;;;;;;;11.30;95.50;;;;;;5084633;28;20605;-88
2022/09/21 21:27:02;;;;;;;;;;;11.30;95.50;;;;;;5103039;27;19924;-87
2022/09/21 21:29:30;;;;;;;;;;;11.30;95.60;;;;;;5078050;28;19923;-88
2022/09/21 21:31:57;;;;;;;;;;;11.20;95.60;;;;;;5088648;28;19924;-88
2022/09/21 21:34:24;;;;;;;;;;;11.20;95.60;;;;;;5089239;28;19960;-87
2022/09/21 21:36:51;;;;;;;;;;;11.20;95.60;;;;;;5084694;28;20021;-89
2022/09/21 21:39:18;;;;;;;;;;;11.20;95.50;;;;;;5088751;28;19985;-88
2022/09/21 21:41:45;;;;;;;;;;;11.20;95.50;;;;;;5091991;28;20477;-88
2022/09/21 21:44:12;;;;;;;;;;;11.20;95.60;;;;;;5092570;28;20066;-87
2022/09/21 21:46:40;;;;;;;;;;;11.20;95.60;;;;;;5068598;28;20403;-88
2022/09/21 21:49:07;;;;;;;;;;;11.20;95.60;;;;;;5073556;28;19982;-88
2022/09/21 21:51:33;;;;;;;;;;;11.10;95.50;;;;;;5086057;28;19927;-85
2022/09/21 21:54:00;;;;;;;;;;;11.10;95.60;;;;;;5085473;28;20341;-87
2022/09/21 21:56:28;;;;;;;;;;;11.10;95.60;;;;;;5076663;28;20412;-87
2022/09/21 21:58:55;;;;;;;;;;;11.10;95.60;;;;;;5085526;28;19924;-88
2022/09/21 22:01:25;;;;;;;;;;;11.10;95.70;;;;;;5086758;28;20337;-88
2022/09/21 22:03:54;;;;;;;;;;;11.10;95.60;;;;;;5071015;28;20321;-88
2022/09/21 22:06:21;;;;;;;;;;;11.00;95.60;;;;;;5081623;28;20377;-86
2022/09/21 22:08:48;;;;;;;;;;;11.00;95.60;;;;;;5088407;28;20306;-88
2022/09/21 22:11:16;;;;;;;;;;;11.00;95.70;;;;;;5087264;28;19924;-87
2022/09/21 22:13:43;;;;;;;;;;;11.00;95.70;;;;;;5067464;28;19928;-86
2022/09/21 22:16:11;;;;;;;;;;;11.00;95.70;;;;;;5070534;28;19932;-86
2022/09/21 22:18:38;;;;;;;;;;;11.00;95.70;;;;;;5074502;28;20439;-88
2022/09/21 22:21:08;;;;;;;;;;;11.00;95.70;;;;;;5084787;28;20027;-88
2022/09/21 22:23:34;;;;;;;;;;;11.00;95.60;;;;;;5074686;28;19931;-88
2022/09/21 22:26:02;;;;;;;;;;;10.90;95.60;;;;;;5090579;28;19924;-87
2022/09/21 22:28:31;;;;;;;;;;;10.90;95.60;;;;;;5073255;28;19956;-88
2022/09/21 22:30:57;;;;;;;;;;;10.90;95.70;;;;;;5108149;27;19931;-88
2022/09/21 22:33:24;;;;;;;;;;;10.90;95.90;;;;;;5084506;28;19924;-87
2022/09/21 22:35:51;;;;;;;;;;;10.90;95.70;;;;;;5089768;28;19928;-87
2022/09/21 22:38:19;;;;;;;;;;;11.00;95.70;;;;;;5083983;28;19993;-88
2022/09/21 22:40:46;;;;;;;;;;;10.90;95.70;;;;;;5101427;27;19932;-88
2022/09/21 22:43:13;;;;;;;;;;;10.90;95.70;;;;;;5083741;28;19928;-87
2022/09/21 22:45:40;;;;;;;;;;;10.80;95.60;;;;;;5090980;28;19927;-88
2022/09/21 22:48:06;;;;;;;;;;;10.80;95.60;;;;;;5081684;28;20018;-88
2022/09/21 22:50:33;;;;;;;;;;;10.90;95.70;;;;;;5075599;28;20014;-88
2022/09/21 22:53:00;;;;;;;;;;;10.80;95.70;;;;;;5087529;28;19934;-86
2022/09/21 22:55:29;;;;;;;;;;;10.80;95.60;;;;;;5092359;28;19932;-88
2022/09/21 22:57:55;;;;;;;;;;;10.80;95.70;;;;;;5069763;28;20092;-89
2022/09/21 23:00:22;;;;;;;;;;;10.80;95.70;;;;;;5071115;28;19971;-88
2022/09/21 23:02:53;;;;;;;;;;;10.80;95.70;;;;;;5085693;28;20023;-88
2022/09/21 23:05:20;;;;;;;;;;;10.80;95.70;;;;;;5066620;28;20120;-86
2022/09/21 23:07:49;;;;;;;;;;;10.80;95.70;;;;;;5090824;28;19959;-88
2022/09/21 23:10:16;;;;;;;;;;;10.70;95.70;;;;;;5089626;28;19924;-86
2022/09/21 23:12:44;;;;;;;;;;;10.80;95.80;;;;;;5086139;28;19959;-85
2022/09/21 23:15:11;;;;;;;;;;;10.70;95.70;;;;;;5082843;28;19959;-87
2022/09/21 23:17:38;;;;;;;;;;;10.70;95.70;;;;;;5086333;28;20387;-88
2022/09/21 23:20:05;;;;;;;;;;;10.70;95.80;;;;;;5088805;28;19969;-87
2022/09/21 23:22:32;;;;;;;;;;;10.70;95.80;;;;;;5082534;28;19993;-88
2022/09/21 23:24:58;;;;;;;;;;;10.70;95.80;;;;;;5083327;28;20011;-86
2022/09/21 23:27:27;;;;;;;;;;;10.70;95.80;;;;;;5083903;28;20350;-87
2022/09/21 23:29:56;;;;;;;;;;;10.60;95.80;;;;;;5090586;28;19967;-87
2022/09/21 23:32:23;;;;;;;;;;;10.60;95.80;;;;;;5070620;28;19943;-86
2022/09/21 23:34:50;;;;;;;;;;;10.60;95.80;;;;;;5068976;28;19959;-87
2022/09/21 23:37:16;;;;;;;;;;;10.70;95.90;;;;;;5079792;28;20018;-87
2022/09/21 23:39:43;;;;;;;;;;;10.60;95.80;;;;;;5070318;28;19928;-88
2022/09/21 23:42:10;;;;;;;;;;;10.60;95.80;;;;;;5097212;27;19960;-86
2022/09/21 23:44:37;;;;;;;;;;;10.60;95.90;;;;;;5068967;28;19976;-87
2022/09/21 23:47:05;;;;;;;;;;;10.60;95.90;;;;;;5084378;28;19965;-86
2022/09/21 23:49:32;;;;;;;;;;;10.60;95.90;;;;;;5089742;28;19929;-88
2022/09/21 23:51:59;;;;;;;;;;;10.50;95.80;;;;;;5085135;28;19924;-88
2022/09/21 23:54:26;;;;;;;;;;;10.50;95.80;;;;;;5087862;28;19936;-87
2022/09/21 23:56:52;;;;;;;;;;;10.60;95.90;;;;;;5090776;28;20547;-87
2022/09/21 23:59:19;;;;;;;;;;;10.50;95.80;;;;;;5084708;28;19924;-85
